sensor_id;sensor_type;location;lat;lon;timestamp;pressure;altitude;pressure_sealevel;temperature;humidity
53550;BME280;67273;52.914;-0.982;2023-08-06T00:02:15;100980.47;;;21.35;47.73
53550;BME280;67273;52.914;-0.982;2023-08-06T00:04:41;100978.84;;;21.34;48.04
53550;BME280;67273;52.914;-0.982;2023-08-06T00:07:07;100982.38;;;21.35;47.89
53550;BME280;67273;52.914;-0.982;2023-08-06T00:09:33;100978.84;;;21.34;47.75
53550;BME280;67273;52.914;-0.982;2023-08-06T00:12:00;100985.38;;;21.33;47.87
53550;BME280;67273;52.914;-0.982;2023-08-06T00:14:25;100983.72;;;21.32;47.79
53550;BME280;67273;52.914;-0.982;2023-08-06T00:16:51;100981.00;;;21.32;47.74
53550;BME280;67273;52.914;-0.982;2023-08-06T00:19:17;100975.78;;;21.31;47.81
53550;BME280;67273;52.914;-0.982;2023-08-06T00:21:42;100979.31;;;21.31;47.69
53550;BME280;67273;52.914;-0.982;2023-08-06T00:24:08;100983.41;;;21.29;47.83
53550;BME280;67273;52.914;-0.982;2023-08-06T00:26:34;100980.41;;;21.30;47.67
53550;BME280;67273;52.914;-0.982;2023-08-06T00:29:01;100976.84;;;21.30;47.53
53550;BME280;67273;52.914;-0.982;2023-08-06T00:31:27;100979.00;;;21.27;47.68
53550;BME280;67273;52.914;-0.982;2023-08-06T00:33:52;100991.84;;;21.27;47.66
53550;BME280;67273;52.914;-0.982;2023-08-06T00:36:18;100989.94;;;21.27;47.41
53550;BME280;67273;52.914;-0.982;2023-08-06T00:38:44;100996.50;;;21.26;47.47
53550;BME280;67273;52.914;-0.982;2023-08-06T00:41:10;101001.09;;;21.26;47.53
53550;BME280;67273;52.914;-0.982;2023-08-06T00:43:36;101004.94;;;21.25;47.55
53550;BME280;67273;52.914;-0.982;2023-08-06T00:46:03;101002.19;;;21.25;47.43
53550;BME280;67273;52.914;-0.982;2023-08-06T00:48:29;100999.47;;;21.25;47.37
53550;BME280;67273;52.914;-0.982;2023-08-06T00:50:55;101001.59;;;21.23;47.26
53550;BME280;67273;52.914;-0.982;2023-08-06T00:53:21;100991.75;;;21.22;47.46
53550;BME280;67273;52.914;-0.982;2023-08-06T00:55:47;100996.41;;;21.21;47.40
53550;BME280;67273;52.914;-0.982;2023-08-06T00:58:14;100999.13;;;21.21;47.26
53550;BME280;67273;52.914;-0.982;2023-08-06T01:00:40;101001.25;;;21.19;47.47
53550;BME280;67273;52.914;-0.982;2023-08-06T01:03:08;100997.47;;;21.20;47.44
53550;BME280;67273;52.914;-0.982;2023-08-06T01:05:34;100994.16;;;21.18;47.29
53550;BME280;67273;52.914;-0.982;2023-08-06T01:08:09;100996.91;;;21.18;47.20
53550;BME280;67273;52.914;-0.982;2023-08-06T01:10:46;101005.34;;;21.17;47.21
53550;BME280;67273;52.914;-0.982;2023-08-06T01:13:18;101010.78;;;21.17;47.11
53550;BME280;67273;52.914;-0.982;2023-08-06T01:15:49;101010.78;;;21.17;47.23
53550;BME280;67273;52.914;-0.982;2023-08-06T01:18:22;101010.22;;;21.15;47.08
53550;BME280;67273;52.914;-0.982;2023-08-06T01:20:50;101020.34;;;21.14;46.95
53550;BME280;67273;52.914;-0.982;2023-08-06T01:23:15;101017.84;;;21.13;47.09
53550;BME280;67273;52.914;-0.982;2023-08-06T01:25:48;101023.31;;;21.13;47.18
53550;BME280;67273;52.914;-0.982;2023-08-06T01:28:15;101027.75;;;21.19;47.08
53550;BME280;67273;52.914;-0.982;2023-08-06T01:30:46;101034.22;;;21.13;46.84
53550;BME280;67273;52.914;-0.982;2023-08-06T01:33:16;101035.28;;;21.12;46.88
53550;BME280;67273;52.914;-0.982;2023-08-06T01:35:45;101031.75;;;21.11;46.90
53550;BME280;67273;52.914;-0.982;2023-08-06T01:38:13;101033.03;;;21.08;46.93
53550;BME280;67273;52.914;-0.982;2023-08-06T01:40:39;101034.16;;;21.07;46.88
53550;BME280;67273;52.914;-0.982;2023-08-06T01:43:05;101039.38;;;21.09;46.84
53550;BME280;67273;52.914;-0.982;2023-08-06T01:45:31;101048.63;;;21.08;47.00
53550;BME280;67273;52.914;-0.982;2023-08-06T01:47:56;101051.59;;;21.06;46.82
53550;BME280;67273;52.914;-0.982;2023-08-06T01:50:23;101053.50;;;21.06;46.81
53550;BME280;67273;52.914;-0.982;2023-08-06T01:52:51;101055.41;;;21.05;46.85
53550;BME280;67273;52.914;-0.982;2023-08-06T01:55:19;101060.88;;;21.05;46.71
53550;BME280;67273;52.914;-0.982;2023-08-06T01:57:45;101058.41;;;21.04;46.80
53550;BME280;67273;52.914;-0.982;2023-08-06T02:00:12;101067.66;;;21.03;46.71
53550;BME280;67273;52.914;-0.982;2023-08-06T02:02:40;101058.63;;;21.02;46.92
53550;BME280;67273;52.914;-0.982;2023-08-06T02:05:08;101063.28;;;21.02;46.96
53550;BME280;67273;52.914;-0.982;2023-08-06T02:07:37;101051.50;;;21.01;46.90
53550;BME280;67273;52.914;-0.982;2023-08-06T02:10:05;101061.38;;;21.02;46.89
53550;BME280;67273;52.914;-0.982;2023-08-06T02:12:35;101060.22;;;20.98;46.88
53550;BME280;67273;52.914;-0.982;2023-08-06T02:15:01;101058.53;;;20.97;46.79
53550;BME280;67273;52.914;-0.982;2023-08-06T02:17:27;101065.06;;;20.96;47.05
53550;BME280;67273;52.914;-0.982;2023-08-06T02:19:53;101071.03;;;20.93;46.92
53550;BME280;67273;52.914;-0.982;2023-08-06T02:22:18;101064.38;;;20.89;47.06
53550;BME280;67273;52.914;-0.982;2023-08-06T02:24:44;101063.81;;;20.87;47.05
53550;BME280;67273;52.914;-0.982;2023-08-06T02:27:10;101062.41;;;20.84;46.99
53550;BME280;67273;52.914;-0.982;2023-08-06T02:29:37;101068.94;;;20.83;46.93
53550;BME280;67273;52.914;-0.982;2023-08-06T02:32:06;101066.44;;;20.82;47.03
53550;BME280;67273;52.914;-0.982;2023-08-06T02:34:32;101062.31;;;20.79;47.02
53550;BME280;67273;52.914;-0.982;2023-08-06T02:36:58;101063.59;;;20.77;46.85
53550;BME280;67273;52.914;-0.982;2023-08-06T02:39:24;101073.72;;;20.76;46.84
53550;BME280;67273;52.914;-0.982;2023-08-06T02:41:52;101064.13;;;20.74;46.84
53550;BME280;67273;52.914;-0.982;2023-08-06T02:44:20;101071.22;;;20.75;47.11
53550;BME280;67273;52.914;-0.982;2023-08-06T02:46:50;101069.00;;;20.72;46.91
53550;BME280;67273;52.914;-0.982;2023-08-06T02:49:18;101064.59;;;20.70;47.03
53550;BME280;67273;52.914;-0.982;2023-08-06T02:51:47;101064.59;;;20.70;47.06
53550;BME280;67273;52.914;-0.982;2023-08-06T02:54:13;101070.28;;;20.69;46.98
53550;BME280;67273;52.914;-0.982;2023-08-06T02:56:43;101066.75;;;20.68;47.05
53550;BME280;67273;52.914;-0.982;2023-08-06T02:59:15;101072.19;;;20.68;46.98
53550;BME280;67273;52.914;-0.982;2023-08-06T03:01:51;101068.03;;;20.66;47.03
53550;BME280;67273;52.914;-0.982;2023-08-06T03:04:24;101065.56;;;20.64;47.04
53550;BME280;67273;52.914;-0.982;2023-08-06T03:06:50;101063.09;;;20.63;47.02
53550;BME280;67273;52.914;-0.982;2023-08-06T03:09:17;101068.78;;;20.61;46.83
53550;BME280;67273;52.914;-0.982;2023-08-06T03:11:44;101064.34;;;20.60;46.94
53550;BME280;67273;52.914;-0.982;2023-08-06T03:14:13;101075.28;;;20.60;46.89
53550;BME280;67273;52.914;-0.982;2023-08-06T03:16:39;101073.63;;;20.59;46.86
53550;BME280;67273;52.914;-0.982;2023-08-06T03:19:06;101069.47;;;20.57;46.92
53550;BME280;67273;52.914;-0.982;2023-08-06T03:21:33;101073.00;;;20.57;46.95
53550;BME280;67273;52.914;-0.982;2023-08-06T03:23:59;101072.44;;;20.55;46.89
53550;BME280;67273;52.914;-0.982;2023-08-06T03:26:28;101080.63;;;20.55;46.75
53550;BME280;67273;52.914;-0.982;2023-08-06T03:28:54;101081.72;;;20.54;46.95
53550;BME280;67273;52.914;-0.982;2023-08-06T03:31:21;101081.94;;;20.52;47.03
53550;BME280;67273;52.914;-0.982;2023-08-06T03:33:47;101078.41;;;20.52;46.84
53550;BME280;67273;52.914;-0.982;2023-08-06T03:36:17;101083.88;;;20.52;46.89
53550;BME280;67273;52.914;-0.982;2023-08-06T03:38:43;101093.09;;;20.51;46.95
53550;BME280;67273;52.914;-0.982;2023-08-06T03:41:11;101087.06;;;20.49;46.92
53550;BME280;67273;52.914;-0.982;2023-08-06T03:43:38;101087.06;;;20.49;46.74
53550;BME280;67273;52.914;-0.982;2023-08-06T03:46:07;101092.75;;;20.47;46.67
53550;BME280;67273;52.914;-0.982;2023-08-06T03:48:34;101095.50;;;20.47;46.94
53550;BME280;67273;52.914;-0.982;2023-08-06T03:51:00;101091.94;;;20.47;46.95
53550;BME280;67273;52.914;-0.982;2023-08-06T03:53:28;101096.53;;;20.46;46.95
53550;BME280;67273;52.914;-0.982;2023-08-06T03:55:54;101091.09;;;20.46;47.01
53550;BME280;67273;52.914;-0.982;2023-08-06T03:58:25;101098.69;;;20.44;46.85
53550;BME280;67273;52.914;-0.982;2023-08-06T04:00:57;101092.41;;;20.44;46.84
53550;BME280;67273;52.914;-0.982;2023-08-06T04:03:24;101090.75;;;20.43;46.80
53550;BME280;67273;52.914;-0.982;2023-08-06T04:05:49;101097.28;;;20.42;46.70
53550;BME280;67273;52.914;-0.982;2023-08-06T04:08:15;101091.00;;;20.41;46.97
53550;BME280;67273;52.914;-0.982;2023-08-06T04:10:42;101102.97;;;20.40;46.65
53550;BME280;67273;52.914;-0.982;2023-08-06T04:13:08;101104.88;;;20.40;46.84
53550;BME280;67273;52.914;-0.982;2023-08-06T04:15:34;101106.53;;;20.41;46.69
53550;BME280;67273;52.914;-0.982;2023-08-06T04:18:00;101112.22;;;20.39;47.13
53550;BME280;67273;52.914;-0.982;2023-08-06T04:20:26;101109.75;;;20.38;46.71
53550;BME280;67273;52.914;-0.982;2023-08-06T04:22:54;101112.50;;;20.38;46.89
53550;BME280;67273;52.914;-0.982;2023-08-06T04:25:21;101108.09;;;20.37;46.85
53550;BME280;67273;52.914;-0.982;2023-08-06T04:27:48;101115.47;;;20.36;46.97
53550;BME280;67273;52.914;-0.982;2023-08-06T04:30:14;101111.28;;;20.33;46.75
53550;BME280;67273;52.914;-0.982;2023-08-06T04:32:42;101110.22;;;20.35;46.89
53550;BME280;67273;52.914;-0.982;2023-08-06T04:35:08;101107.50;;;20.35;47.10
53550;BME280;67273;52.914;-0.982;2023-08-06T04:37:35;101109.38;;;20.34;46.86
53550;BME280;67273;52.914;-0.982;2023-08-06T04:40:01;101109.66;;;20.32;46.78
53550;BME280;67273;52.914;-0.982;2023-08-06T04:42:27;101117.56;;;20.34;46.76
53550;BME280;67273;52.914;-0.982;2023-08-06T04:44:54;101118.88;;;20.31;46.88
53550;BME280;67273;52.914;-0.982;2023-08-06T04:47:20;101116.16;;;20.31;46.83
53550;BME280;67273;52.914;-0.982;2023-08-06T04:49:46;101122.69;;;20.30;46.76
53550;BME280;67273;52.914;-0.982;2023-08-06T04:52:11;101119.94;;;20.30;47.00
53550;BME280;67273;52.914;-0.982;2023-08-06T04:54:37;101119.13;;;20.30;46.75
53550;BME280;67273;52.914;-0.982;2023-08-06T04:57:03;101124.59;;;20.30;46.71
53550;BME280;67273;52.914;-0.982;2023-08-06T04:59:29;101131.13;;;20.29;46.80
53550;BME280;67273;52.914;-0.982;2023-08-06T05:01:56;101137.41;;;20.29;46.88
53550;BME280;67273;52.914;-0.982;2023-08-06T05:04:22;101130.28;;;20.28;46.92
53550;BME280;67273;52.914;-0.982;2023-08-06T05:06:48;101141.19;;;20.28;46.67
53550;BME280;67273;52.914;-0.982;2023-08-06T05:09:14;101132.41;;;20.26;46.91
53550;BME280;67273;52.914;-0.982;2023-08-06T05:11:39;101135.97;;;20.27;46.84
53550;BME280;67273;52.914;-0.982;2023-08-06T05:14:05;101138.69;;;20.27;46.82
53550;BME280;67273;52.914;-0.982;2023-08-06T05:16:31;101146.06;;;20.26;46.75
53550;BME280;67273;52.914;-0.982;2023-08-06T05:18:58;101152.34;;;20.27;46.72
53550;BME280;67273;52.914;-0.982;2023-08-06T05:21:23;101150.94;;;20.24;46.67
53550;BME280;67273;52.914;-0.982;2023-08-06T05:23:49;101162.91;;;20.23;46.81
53550;BME280;67273;52.914;-0.982;2023-08-06T05:26:15;101168.34;;;20.23;46.71
53550;BME280;67273;52.914;-0.982;2023-08-06T05:28:43;101161.25;;;20.22;46.84
53550;BME280;67273;52.914;-0.982;2023-08-06T05:31:09;101162.91;;;20.23;46.86
53550;BME280;67273;52.914;-0.982;2023-08-06T05:33:35;101173.81;;;20.23;46.64
53550;BME280;67273;52.914;-0.982;2023-08-06T05:36:02;101171.34;;;20.22;46.90
53550;BME280;67273;52.914;-0.982;2023-08-06T05:38:29;101170.50;;;20.21;46.89
53550;BME280;67273;52.914;-0.982;2023-08-06T05:40:55;101173.22;;;20.21;46.78
53550;BME280;67273;52.914;-0.982;2023-08-06T05:43:22;101173.22;;;20.21;46.64
53550;BME280;67273;52.914;-0.982;2023-08-06T05:45:49;101177.03;;;20.20;46.77
53550;BME280;67273;52.914;-0.982;2023-08-06T05:48:15;101179.75;;;20.20;46.86
53550;BME280;67273;52.914;-0.982;2023-08-06T05:50:40;101181.41;;;20.21;46.82
53550;BME280;67273;52.914;-0.982;2023-08-06T05:53:08;101178.91;;;20.20;47.00
53550;BME280;67273;52.914;-0.982;2023-08-06T05:55:33;101184.38;;;20.20;47.03
53550;BME280;67273;52.914;-0.982;2023-08-06T05:57:59;101189.00;;;20.19;47.04
53550;BME280;67273;52.914;-0.982;2023-08-06T06:00:25;101189.81;;;20.20;47.16
53550;BME280;67273;52.914;-0.982;2023-08-06T06:02:51;101193.63;;;20.19;46.92
53550;BME280;67273;52.914;-0.982;2023-08-06T06:05:17;101194.47;;;20.19;47.20
53550;BME280;67273;52.914;-0.982;2023-08-06T06:07:42;101198.28;;;20.18;47.34
53550;BME280;67273;52.914;-0.982;2023-08-06T06:10:10;101201.81;;;20.19;47.17
53550;BME280;67273;52.914;-0.982;2023-08-06T06:12:38;101198.28;;;20.18;47.39
53550;BME280;67273;52.914;-0.982;2023-08-06T06:15:05;101198.28;;;20.18;47.29
53550;BME280;67273;52.914;-0.982;2023-08-06T06:17:30;101212.97;;;20.17;47.29
53550;BME280;67273;52.914;-0.982;2023-08-06T06:19:56;101210.25;;;20.17;47.35
53550;BME280;67273;52.914;-0.982;2023-08-06T06:22:22;101214.66;;;20.18;47.32
53550;BME280;67273;52.914;-0.982;2023-08-06T06:24:48;101220.09;;;20.18;47.33
53550;BME280;67273;52.914;-0.982;2023-08-06T06:27:15;101219.25;;;20.18;47.37
53550;BME280;67273;52.914;-0.982;2023-08-06T06:29:40;101220.09;;;20.18;47.50
53550;BME280;67273;52.914;-0.982;2023-08-06T06:32:06;101223.88;;;20.17;47.58
53550;BME280;67273;52.914;-0.982;2023-08-06T06:34:32;101224.47;;;20.19;47.57
53550;BME280;67273;52.914;-0.982;2023-08-06T06:36:58;101226.38;;;20.19;47.38
53550;BME280;67273;52.914;-0.982;2023-08-06T06:39:24;101221.97;;;20.18;47.53
53550;BME280;67273;52.914;-0.982;2023-08-06T06:41:49;101231.00;;;20.18;47.45
53550;BME280;67273;52.914;-0.982;2023-08-06T06:44:25;101233.75;;;20.18;47.51
53550;BME280;67273;52.914;-0.982;2023-08-06T06:46:51;101234.78;;;20.17;47.49
53550;BME280;67273;52.914;-0.982;2023-08-06T06:49:17;101231.84;;;20.19;47.64
53550;BME280;67273;52.914;-0.982;2023-08-06T06:51:42;101232.88;;;20.18;48.12
53550;BME280;67273;52.914;-0.982;2023-08-06T06:54:08;101232.66;;;20.19;47.99
53550;BME280;67273;52.914;-0.982;2023-08-06T06:56:34;101234.56;;;20.19;47.89
53550;BME280;67273;52.914;-0.982;2023-08-06T06:58:59;101243.56;;;20.19;47.97
53550;BME280;67273;52.914;-0.982;2023-08-06T07:01:26;101241.94;;;20.18;48.00
53550;BME280;67273;52.914;-0.982;2023-08-06T07:03:52;101241.94;;;20.18;47.85
53550;BME280;67273;52.914;-0.982;2023-08-06T07:06:18;101250.13;;;20.18;48.12
53550;BME280;67273;52.914;-0.982;2023-08-06T07:08:44;101247.38;;;20.18;47.86
53550;BME280;67273;52.914;-0.982;2023-08-06T07:11:10;101248.22;;;20.19;47.98
53550;BME280;67273;52.914;-0.982;2023-08-06T07:13:36;101247.38;;;20.18;47.96
53550;BME280;67273;52.914;-0.982;2023-08-06T07:16:02;101252.84;;;20.18;48.05
53550;BME280;67273;52.914;-0.982;2023-08-06T07:18:29;101254.47;;;20.19;48.09
53550;BME280;67273;52.914;-0.982;2023-08-06T07:20:55;101252.84;;;20.18;48.18
53550;BME280;67273;52.914;-0.982;2023-08-06T07:23:22;101258.88;;;20.20;48.10
53550;BME280;67273;52.914;-0.982;2023-08-06T07:25:48;101249.03;;;20.19;48.24
53550;BME280;67273;52.914;-0.982;2023-08-06T07:28:14;101245.25;;;20.20;48.35
53550;BME280;67273;52.914;-0.982;2023-08-06T07:30:40;101245.25;;;20.20;48.18
53550;BME280;67273;52.914;-0.982;2023-08-06T07:33:06;101252.34;;;20.21;48.27
53550;BME280;67273;52.914;-0.982;2023-08-06T07:35:33;101256.16;;;20.20;48.23
53550;BME280;67273;52.914;-0.982;2023-08-06T07:37:59;101250.69;;;20.20;48.40
53550;BME280;67273;52.914;-0.982;2023-08-06T07:40:24;101249.84;;;20.20;48.35
53550;BME280;67273;52.914;-0.982;2023-08-06T07:42:50;101256.38;;;20.19;48.36
53550;BME280;67273;52.914;-0.982;2023-08-06T07:45:16;101261.63;;;20.20;48.39
53550;BME280;67273;52.914;-0.982;2023-08-06T07:47:42;101263.25;;;20.21;48.20
53550;BME280;67273;52.914;-0.982;2023-08-06T07:50:09;101262.44;;;20.21;48.13
53550;BME280;67273;52.914;-0.982;2023-08-06T07:52:36;101267.66;;;20.22;47.95
53550;BME280;67273;52.914;-0.982;2023-08-06T07:55:02;101265.16;;;20.21;48.11
53550;BME280;67273;52.914;-0.982;2023-08-06T07:57:30;101275.84;;;20.22;48.10
53550;BME280;67273;52.914;-0.982;2023-08-06T07:59:56;101267.91;;;20.21;48.08
53550;BME280;67273;52.914;-0.982;2023-08-06T08:02:21;101268.72;;;20.21;47.99
53550;BME280;67273;52.914;-0.982;2023-08-06T08:04:47;101273.13;;;20.22;47.97
53550;BME280;67273;52.914;-0.982;2023-08-06T08:07:13;101272.03;;;20.23;47.82
53550;BME280;67273;52.914;-0.982;2023-08-06T08:09:40;101275.84;;;20.22;48.08
53550;BME280;67273;52.914;-0.982;2023-08-06T08:12:07;101279.41;;;20.23;47.82
53550;BME280;67273;52.914;-0.982;2023-08-06T08:14:32;101288.41;;;20.23;47.78
53550;BME280;67273;52.914;-0.982;2023-08-06T08:17:02;101274.16;;;20.21;48.21
53550;BME280;67273;52.914;-0.982;2023-08-06T08:19:28;101276.09;;;20.21;47.79
53550;BME280;67273;52.914;-0.982;2023-08-06T08:21:54;101279.63;;;20.21;47.98
53550;BME280;67273;52.914;-0.982;2023-08-06T08:24:20;101269.31;;;20.23;47.84
53550;BME280;67273;52.914;-0.982;2023-08-06T08:26:48;101277.50;;;20.23;47.90
53550;BME280;67273;52.914;-0.982;2023-08-06T08:29:14;101279.16;;;20.24;47.69
53550;BME280;67273;52.914;-0.982;2023-08-06T08:31:39;101275.38;;;20.25;47.70
53550;BME280;67273;52.914;-0.982;2023-08-06T08:34:05;101279.16;;;20.24;47.61
53550;BME280;67273;52.914;-0.982;2023-08-06T08:36:31;101280.84;;;20.25;47.60
53550;BME280;67273;52.914;-0.982;2023-08-06T08:38:57;101274.53;;;20.25;47.61
53550;BME280;67273;52.914;-0.982;2023-08-06T08:41:23;101282.50;;;20.26;47.53
53550;BME280;67273;52.914;-0.982;2023-08-06T08:43:51;101278.13;;;20.25;47.57
53550;BME280;67273;52.914;-0.982;2023-08-06T08:46:18;101285.00;;;20.28;47.69
53550;BME280;67273;52.914;-0.982;2023-08-06T08:48:43;101278.72;;;20.27;47.65
53550;BME280;67273;52.914;-0.982;2023-08-06T08:51:10;101279.53;;;20.28;47.64
53550;BME280;67273;52.914;-0.982;2023-08-06T08:53:37;101280.34;;;20.28;47.68
53550;BME280;67273;52.914;-0.982;2023-08-06T08:56:05;101288.53;;;20.28;47.34
53550;BME280;67273;52.914;-0.982;2023-08-06T08:58:31;101291.25;;;20.28;47.71
53550;BME280;67273;52.914;-0.982;2023-08-06T09:00:58;101291.84;;;20.30;47.46
53550;BME280;67273;52.914;-0.982;2023-08-06T09:03:24;101289.13;;;20.30;47.48
53550;BME280;67273;52.914;-0.982;2023-08-06T09:05:53;101288.06;;;20.31;47.36
53550;BME280;67273;52.914;-0.982;2023-08-06T09:08:23;101292.47;;;20.32;47.43
53550;BME280;67273;52.914;-0.982;2023-08-06T09:10:50;101297.94;;;20.32;47.51
53550;BME280;67273;52.914;-0.982;2023-08-06T09:13:17;101287.03;;;20.32;47.75
53550;BME280;67273;52.914;-0.982;2023-08-06T09:15:43;101292.47;;;20.32;47.56
53550;BME280;67273;52.914;-0.982;2023-08-06T09:18:11;101296.84;;;20.33;47.60
53550;BME280;67273;52.914;-0.982;2023-08-06T09:20:37;101299.59;;;20.33;47.53
53550;BME280;67273;52.914;-0.982;2023-08-06T09:23:07;101291.41;;;20.33;47.52
53550;BME280;67273;52.914;-0.982;2023-08-06T09:25:33;101290.34;;;20.35;47.56
53550;BME280;67273;52.914;-0.982;2023-08-06T09:27:58;101301.25;;;20.35;47.40
53550;BME280;67273;52.914;-0.982;2023-08-06T09:30:29;101294.72;;;20.36;47.46
53550;BME280;67273;52.914;-0.982;2023-08-06T09:32:56;101294.72;;;20.36;47.43
53550;BME280;67273;52.914;-0.982;2023-08-06T09:35:23;101302.91;;;20.36;47.29
53550;BME280;67273;52.914;-0.982;2023-08-06T09:37:49;101300.19;;;20.36;47.45
53550;BME280;67273;52.914;-0.982;2023-08-06T09:40:25;101304.56;;;20.37;47.25
53550;BME280;67273;52.914;-0.982;2023-08-06T09:42:52;101300.78;;;20.38;47.21
53550;BME280;67273;52.914;-0.982;2023-08-06T09:45:18;101304.56;;;20.37;47.31
53550;BME280;67273;52.914;-0.982;2023-08-06T09:47:43;101311.72;;;20.38;47.24
53550;BME280;67273;52.914;-0.982;2023-08-06T09:50:15;101310.84;;;20.37;47.29
53550;BME280;67273;52.914;-0.982;2023-08-06T09:52:42;101314.44;;;20.38;47.28
53550;BME280;67273;52.914;-0.982;2023-08-06T09:55:10;101316.09;;;20.39;47.17
53550;BME280;67273;52.914;-0.982;2023-08-06T09:57:37;101318.81;;;20.39;46.98
53550;BME280;67273;52.914;-0.982;2023-08-06T10:00:03;101319.63;;;20.39;47.05
53550;BME280;67273;52.914;-0.982;2023-08-06T10:02:39;101318.81;;;20.39;47.00
53550;BME280;67273;52.914;-0.982;2023-08-06T10:05:05;101323.22;;;20.40;46.99
53550;BME280;67273;52.914;-0.982;2023-08-06T10:07:31;101324.03;;;20.40;47.14
53550;BME280;67273;52.914;-0.982;2023-08-06T10:09:58;101325.72;;;20.41;47.08
53550;BME280;67273;52.914;-0.982;2023-08-06T10:12:26;101324.88;;;20.41;47.46
53550;BME280;67273;52.914;-0.982;2023-08-06T10:14:56;101316.44;;;20.42;47.19
53550;BME280;67273;52.914;-0.982;2023-08-06T10:17:24;101323.81;;;20.42;47.07
53550;BME280;67273;52.914;-0.982;2023-08-06T10:19:50;101328.19;;;20.43;47.20
53550;BME280;67273;52.914;-0.982;2023-08-06T10:22:17;101326.31;;;20.43;47.15
53550;BME280;67273;52.914;-0.982;2023-08-06T10:24:50;101332.59;;;20.44;46.96
53550;BME280;67273;52.914;-0.982;2023-08-06T10:27:28;101323.34;;;20.45;46.90
53550;BME280;67273;52.914;-0.982;2023-08-06T10:29:54;101329.88;;;20.44;47.01
53550;BME280;67273;52.914;-0.982;2023-08-06T10:32:20;101337.81;;;20.45;47.01
53550;BME280;67273;52.914;-0.982;2023-08-06T10:34:56;101329.63;;;20.45;47.23
53550;BME280;67273;52.914;-0.982;2023-08-06T10:37:28;101336.75;;;20.46;47.18
53550;BME280;67273;52.914;-0.982;2023-08-06T10:40:01;101335.91;;;20.46;47.04
53550;BME280;67273;52.914;-0.982;2023-08-06T10:42:29;101337.59;;;20.47;47.25
53550;BME280;67273;52.914;-0.982;2023-08-06T10:45:14;101334.88;;;20.47;47.22
53550;BME280;67273;52.914;-0.982;2023-08-06T10:47:40;101332.13;;;20.47;47.08
53550;BME280;67273;52.914;-0.982;2023-08-06T10:50:07;101331.06;;;20.48;47.15
53550;BME280;67273;52.914;-0.982;2023-08-06T10:52:34;101331.06;;;20.48;46.95
53550;BME280;67273;52.914;-0.982;2023-08-06T10:54:59;101328.31;;;20.48;47.01
53550;BME280;67273;52.914;-0.982;2023-08-06T10:57:25;101334.63;;;20.48;46.92
53550;BME280;67273;52.914;-0.982;2023-08-06T10:59:52;101350.16;;;20.48;46.97
53550;BME280;67273;52.914;-0.982;2023-08-06T11:02:18;101339.25;;;20.48;46.87
53550;BME280;67273;52.914;-0.982;2023-08-06T11:04:44;101338.19;;;20.49;46.74
53550;BME280;67273;52.914;-0.982;2023-08-06T11:07:10;101336.28;;;20.49;46.78
53550;BME280;67273;52.914;-0.982;2023-08-06T11:09:35;101337.09;;;20.50;46.70
53550;BME280;67273;52.914;-0.982;2023-08-06T11:12:01;101348.03;;;20.50;46.75
53550;BME280;67273;52.914;-0.982;2023-08-06T11:14:27;101342.56;;;20.50;46.57
53550;BME280;67273;52.914;-0.982;2023-08-06T11:16:54;101351.38;;;20.52;46.61
53550;BME280;67273;52.914;-0.982;2023-08-06T11:19:20;101340.44;;;20.52;46.53
53550;BME280;67273;52.914;-0.982;2023-08-06T11:21:45;101335.00;;;20.52;46.57
53550;BME280;67273;52.914;-0.982;2023-08-06T11:24:13;101338.78;;;20.51;46.58
53550;BME280;67273;52.914;-0.982;2023-08-06T11:26:38;101346.72;;;20.52;46.32
53550;BME280;67273;52.914;-0.982;2023-08-06T11:29:05;101335.81;;;20.52;46.25
53550;BME280;67273;52.914;-0.982;2023-08-06T11:31:31;101342.91;;;20.54;46.54
53550;BME280;67273;52.914;-0.982;2023-08-06T11:33:58;101344.81;;;20.53;46.54
53550;BME280;67273;52.914;-0.982;2023-08-06T11:36:31;101342.09;;;20.53;46.55
53550;BME280;67273;52.914;-0.982;2023-08-06T11:38:57;101339.38;;;20.53;46.20
53550;BME280;67273;52.914;-0.982;2023-08-06T11:41:23;101337.47;;;20.54;45.94
53550;BME280;67273;52.914;-0.982;2023-08-06T11:43:49;101326.31;;;20.55;45.98
53550;BME280;67273;52.914;-0.982;2023-08-06T11:46:14;101333.44;;;20.56;45.89
53550;BME280;67273;52.914;-0.982;2023-08-06T11:48:51;101325.03;;;20.58;46.01
53550;BME280;67273;52.914;-0.982;2023-08-06T11:51:18;101322.53;;;20.56;46.03
53550;BME280;67273;52.914;-0.982;2023-08-06T11:53:48;101329.03;;;20.55;45.96
53550;BME280;67273;52.914;-0.982;2023-08-06T11:56:14;101326.91;;;20.57;45.68
53550;BME280;67273;52.914;-0.982;2023-08-06T11:58:40;101332.97;;;20.59;45.88
53550;BME280;67273;52.914;-0.982;2023-08-06T12:01:06;101339.25;;;20.60;45.75
53550;BME280;67273;52.914;-0.982;2023-08-06T12:03:32;101329.16;;;20.60;45.83
53550;BME280;67273;52.914;-0.982;2023-08-06T12:05:58;101330.25;;;20.59;45.69
53550;BME280;67273;52.914;-0.982;2023-08-06T12:08:27;101326.44;;;20.60;45.80
53550;BME280;67273;52.914;-0.982;2023-08-06T12:10:53;101335.25;;;20.62;45.62
53550;BME280;67273;52.914;-0.982;2023-08-06T12:13:19;101334.19;;;20.63;45.53
53550;BME280;67273;52.914;-0.982;2023-08-06T12:15:45;101331.47;;;20.63;45.59
53550;BME280;67273;52.914;-0.982;2023-08-06T12:18:10;101326.81;;;20.64;45.47
53550;BME280;67273;52.914;-0.982;2023-08-06T12:20:37;101332.28;;;20.64;45.54
53550;BME280;67273;52.914;-0.982;2023-08-06T12:23:04;101339.41;;;20.65;45.53
53550;BME280;67273;52.914;-0.982;2023-08-06T12:25:31;101334.78;;;20.65;45.52
53550;BME280;67273;52.914;-0.982;2023-08-06T12:27:56;101327.41;;;20.66;45.36
53550;BME280;67273;52.914;-0.982;2023-08-06T12:30:23;101321.13;;;20.65;45.46
53550;BME280;67273;52.914;-0.982;2023-08-06T12:32:48;101336.47;;;20.66;45.39
53550;BME280;67273;52.914;-0.982;2023-08-06T12:35:17;101338.09;;;20.67;45.40
53550;BME280;67273;52.914;-0.982;2023-08-06T12:37:42;101339.78;;;20.68;45.38
53550;BME280;67273;52.914;-0.982;2023-08-06T12:40:10;101335.38;;;20.67;45.18